Time;durP1;ratioP1;P1;durP2;ratioP2;P2;SDS_P1;SDS_P2;PMS_P1;PMS_P2;Temp;Humidity;BMP_temperature;BMP_pressure;BME280_temperature;BME280_humidity;BME280_pressure;Samples;Min_cycle;Max_cycle;Signal;HPM_P1;HPM_P2
2021/09/06 00:01:43;;;;;;;10.65;5.80;;;;;;;10.12;87.20;91361.34;4979078;28;20449;-86
2021/09/06 00:04:20;;;;;;;8.85;5.80;;;;;;;10.00;87.76;91359.38;4995757;28;20025;-85
2021/09/06 00:06:58;;;;;;;12.35;5.97;;;;;;;10.04;87.55;91361.09;4980841;28;20401;-86
2021/09/06 00:09:34;;;;;;;8.93;6.10;;;;;;;9.99;87.45;91347.47;4982519;28;20096;-86
2021/09/06 00:12:16;;;;;;;9.23;5.85;;;;;;;9.98;86.93;91354.50;4983048;28;20036;-86
2021/09/06 00:14:44;;;;;;;8.27;5.68;;;;;;;9.90;87.91;91357.91;4982727;28;20033;-84
2021/09/06 00:17:11;;;;;;;12.63;6.22;;;;;;;9.88;87.67;91361.91;4964178;28;20434;-86
2021/09/06 00:19:51;;;;;;;9.98;5.40;;;;;;;9.97;86.96;91354.84;4979765;28;20019;-86
2021/09/06 00:22:26;;;;;;;8.88;4.88;;;;;;;9.96;86.58;91356.66;4982132;28;20022;-87
2021/09/06 00:25:07;;;;;;;9.13;5.07;;;;;;;9.99;86.70;91358.63;4993173;28;20010;-89
2021/09/06 00:27:47;;;;;;;12.82;5.43;;;;;;;9.98;86.41;91357.13;5005031;28;20014;-87
2021/09/06 00:30:21;;;;;;;12.00;6.30;;;;;;;9.75;87.51;91350.59;4953200;28;20058;-85
2021/09/06 00:32:55;;;;;;;8.60;5.85;;;;;;;9.71;87.99;91357.50;4964264;28;20023;-86
2021/09/06 00:35:27;;;;;;;9.35;5.40;;;;;;;9.70;87.67;91358.59;4963175;28;20045;-86
2021/09/06 00:38:04;;;;;;;10.65;5.50;;;;;;;9.68;86.88;91345.13;4964066;28;20041;-86
2021/09/06 00:40:41;;;;;;;11.15;5.47;;;;;;;9.81;85.92;91342.31;4982460;28;20394;-87
2021/09/06 00:43:13;;;;;;;12.50;5.50;;;;;;;9.69;86.44;91344.06;5000228;28;20379;-86
2021/09/06 00:45:55;;;;;;;8.45;5.03;;;;;;;9.58;86.37;91344.41;4999791;28;20049;-87
2021/09/06 00:48:33;;;;;;;9.40;5.63;;;;;;;9.44;87.19;91343.81;5004150;28;20061;-87
2021/09/06 00:51:08;;;;;;;8.60;5.65;;;;;;;9.43;87.41;91347.47;5009928;28;20112;-86
2021/09/06 00:53:43;;;;;;;11.80;5.82;;;;;;;9.46;87.95;91346.88;4982757;28;20402;-86
2021/09/06 00:56:14;;;;;;;17.15;5.95;;;;;;;9.51;89.18;91354.53;4982620;28;20088;-86
2021/09/06 00:58:50;;;;;;;10.35;5.78;;;;;;;9.50;89.59;91342.56;4982302;28;20025;-86
2021/09/06 01:01:26;;;;;;;11.98;6.75;;;;;;;9.54;89.42;91346.09;4981757;28;20026;-86
2021/09/06 01:04:00;;;;;;;10.10;5.60;;;;;;;9.73;89.25;91347.56;4998686;28;20108;-86
2021/09/06 01:06:37;;;;;;;11.27;6.40;;;;;;;9.65;89.75;91343.94;4982369;28;20030;-86
2021/09/06 01:09:11;;;;;;;8.48;5.45;;;;;;;9.57;88.95;91342.84;4998493;28;20034;-87
2021/09/06 01:11:48;;;;;;;12.68;6.18;;;;;;;9.57;87.93;91342.84;4998720;28;20029;-86
2021/09/06 01:14:28;;;;;;;14.07;8.07;;;;;;;9.53;87.55;91339.34;4998710;28;20053;-87
2021/09/06 01:17:01;;;;;;;13.68;6.75;;;;;;;9.50;87.20;91336.59;4997477;28;20041;-86
2021/09/06 01:19:39;;;;;;;9.88;6.18;;;;;;;9.46;87.47;91339.06;4997547;28;20029;-87
2021/09/06 01:22:18;;;;;;;11.63;6.03;;;;;;;9.45;87.13;91342.75;4997745;28;20021;-87
2021/09/06 01:24:57;;;;;;;11.35;6.32;;;;;;;9.37;87.50;91340.19;4998364;28;20029;-86
2021/09/06 01:27:35;;;;;;;9.57;6.03;;;;;;;9.46;88.48;91346.09;5014074;28;20030;-86
2021/09/06 01:30:12;;;;;;;11.02;6.50;;;;;;;9.42;88.25;91345.97;4997669;28;20038;-87
2021/09/06 01:32:44;;;;;;;13.15;5.85;;;;;;;9.37;89.01;91347.97;4997945;28;20025;-86
2021/09/06 01:35:24;;;;;;;12.35;6.20;;;;;;;9.29;89.07;91344.28;4971336;28;20088;-86
2021/09/06 01:37:57;;;;;;;10.65;6.22;;;;;;;9.26;87.99;91343.09;4962176;28;20112;-86
2021/09/06 01:40:28;;;;;;;14.05;6.57;;;;;;;9.22;88.20;91338.81;4961403;28;20089;-86
2021/09/06 01:43:06;;;;;;;11.55;6.72;;;;;;;9.20;88.45;91344.31;4961442;28;20040;-86
2021/09/06 01:45:43;;;;;;;13.07;6.68;;;;;;;9.41;88.46;91344.44;4961486;28;20490;-86
2021/09/06 01:48:19;;;;;;;12.32;6.28;;;;;;;9.34;87.90;91344.91;4961515;28;20026;-86
2021/09/06 01:51:00;;;;;;;11.88;6.30;;;;;;;9.29;87.53;91342.50;4969818;28;20030;-86
2021/09/06 01:53:39;;;;;;;11.95;6.10;;;;;;;9.39;87.02;91343.97;4973417;28;20014;-87
2021/09/06 01:56:18;;;;;;;13.57;5.38;;;;;;;9.33;87.14;91342.63;4967070;28;20025;-87
2021/09/06 01:58:56;;;;;;;9.90;6.13;;;;;;;9.21;88.78;91343.25;4981174;28;20025;-86
2021/09/06 02:01:37;;;;;;;12.27;6.55;;;;;;;9.12;88.43;91346.91;4997173;28;20109;-86
2021/09/06 02:04:17;;;;;;;13.63;7.00;;;;;;;9.15;88.84;91354.09;4993252;28;20022;-86
2021/09/06 02:06:52;;;;;;;11.55;6.45;;;;;;;9.19;89.29;91355.03;4947174;28;20027;-86
2021/09/06 02:09:29;;;;;;;14.93;7.00;;;;;;;9.22;89.22;91344.00;4973092;28;20386;-86
2021/09/06 02:12:06;;;;;;;12.48;6.72;;;;;;;9.18;89.11;91340.50;4981589;28;20429;-87
2021/09/06 02:14:39;;;;;;;9.90;6.22;;;;;;;9.25;89.88;91346.00;4997034;28;20026;-87
2021/09/06 02:17:11;;;;;;;9.93;6.30;;;;;;;9.28;90.26;91342.78;4993744;28;20027;-87
2021/09/06 02:19:43;;;;;;;8.85;6.30;;;;;;;9.29;89.83;91346.91;4963663;28;20018;-87
2021/09/06 02:22:23;;;;;;;11.30;6.28;;;;;;;9.26;89.93;91348.31;4978132;28;20510;-87
2021/09/06 02:25:01;;;;;;;14.05;6.80;;;;;;;9.19;89.98;91352.44;4980809;28;20064;-87
2021/09/06 02:27:38;;;;;;;9.80;6.35;;;;;;;9.30;89.54;91346.59;4996949;28;20113;-87
2021/09/06 02:30:17;;;;;;;14.23;6.88;;;;;;;9.20;89.57;91346.16;4995648;28;20022;-87
2021/09/06 02:32:48;;;;;;;10.70;6.57;;;;;;;9.17;89.88;91350.13;4980883;28;20112;-86
2021/09/06 02:35:28;;;;;;;10.50;6.15;;;;;;;9.21;90.04;91351.03;4980895;28;20034;-87
2021/09/06 02:38:06;;;;;;;11.88;6.10;;;;;;;9.20;90.26;91348.75;4997565;28;20048;-88
2021/09/06 02:40:39;;;;;;;14.65;7.72;;;;;;;9.14;89.32;91360.38;4963825;28;20034;-87
2021/09/06 02:43:16;;;;;;;10.85;6.22;;;;;;;9.11;88.93;91364.34;4971068;28;20025;-88
2021/09/06 02:45:55;;;;;;;9.52;6.30;;;;;;;9.06;88.79;91359.34;4980459;28;20036;-87
2021/09/06 02:48:28;;;;;;;10.75;6.10;;;;;;;9.05;87.30;91363.78;4981018;28;20025;-86
2021/09/06 02:51:05;;;;;;;10.15;5.72;;;;;;;8.80;88.27;91356.75;4997137;28;20030;-87
2021/09/06 02:53:42;;;;;;;8.98;5.95;;;;;;;8.92;88.08;91356.13;4965718;28;20405;-87
2021/09/06 02:56:17;;;;;;;9.07;5.93;;;;;;;8.82;87.59;91355.34;4982839;28;20026;-88
2021/09/06 02:58:50;;;;;;;10.75;5.57;;;;;;;8.67;88.23;91357.66;4980945;28;20022;-88
2021/09/06 03:01:27;;;;;;;9.15;5.47;;;;;;;8.66;88.25;91351.69;4967118;28;20645;-88
2021/09/06 03:03:55;;;;;;;10.93;6.53;;;;;;;8.64;88.51;91358.25;5013733;28;20032;-87
2021/09/06 03:06:25;;;;;;;11.07;6.43;;;;;;;8.68;88.32;91351.38;5001289;28;20026;-87
2021/09/06 03:09:02;;;;;;;13.27;7.03;;;;;;;8.86;89.65;91356.25;4996745;28;20021;-87
2021/09/06 03:11:39;;;;;;;14.02;6.03;;;;;;;8.83;90.36;91350.91;4996137;28;20136;-86
2021/09/06 03:14:15;;;;;;;11.38;6.30;;;;;;;8.87;90.47;91346.66;4980083;28;20026;-87
2021/09/06 03:16:46;;;;;;;12.40;6.57;;;;;;;8.83;90.77;91350.91;4980247;28;20026;-87
2021/09/06 03:19:26;;;;;;;12.15;7.13;;;;;;;8.85;90.97;91349.53;4995946;28;20018;-87
2021/09/06 03:21:56;;;;;;;12.93;6.95;;;;;;;8.87;91.06;91351.84;4980365;28;20026;-88
2021/09/06 03:24:32;;;;;;;12.38;6.90;;;;;;;8.82;90.26;91344.97;4985530;28;20026;-87
2021/09/06 03:27:08;;;;;;;9.82;6.60;;;;;;;8.86;90.28;91350.31;4945070;28;20033;-87
2021/09/06 03:29:37;;;;;;;12.98;7.15;;;;;;;8.88;91.01;91340.38;4945307;28;20034;-87
2021/09/06 03:32:11;;;;;;;13.18;7.13;;;;;;;8.87;89.98;91341.47;4944362;28;20022;-87
2021/09/06 03:34:43;;;;;;;12.32;6.50;;;;;;;8.94;89.34;91336.56;4945480;28;20031;-87
2021/09/06 03:37:19;;;;;;;12.82;6.05;;;;;;;8.84;88.16;91344.66;4944660;28;20061;-85
2021/09/06 03:39:55;;;;;;;16.08;7.13;;;;;;;8.90;88.97;91342.66;4947948;28;20018;-87
2021/09/06 03:42:32;;;;;;;10.98;6.68;;;;;;;8.82;88.91;91339.00;4947300;28;20034;-87
2021/09/06 03:45:08;;;;;;;13.57;6.63;;;;;;;8.73;88.88;91340.84;4965290;28;20026;-87
2021/09/06 03:47:44;;;;;;;11.05;6.75;;;;;;;8.82;90.13;91344.19;4948826;28;20112;-87
2021/09/06 03:50:22;;;;;;;14.27;8.00;;;;;;;8.90;90.31;91351.22;4965194;28;20030;-85
2021/09/06 03:52:57;;;;;;;11.60;7.28;;;;;;;8.88;90.15;91342.22;4995820;28;20026;-87
2021/09/06 03:55:37;;;;;;;15.57;7.78;;;;;;;8.80;90.52;91341.16;4999718;28;20033;-87
2021/09/06 03:58:11;;;;;;;15.88;7.90;;;;;;;8.77;91.09;91341.75;4999889;28;20026;-87
2021/09/06 04:00:43;;;;;;;12.57;7.57;;;;;;;8.90;90.81;91348.63;4991281;28;20022;-89
2021/09/06 04:03:23;;;;;;;12.68;7.63;;;;;;;8.91;89.62;91352.00;4988930;28;20019;-89
2021/09/06 04:05:59;;;;;;;10.43;6.57;;;;;;;8.96;88.71;91344.81;5006012;28;20023;-87
2021/09/06 04:08:34;;;;;;;14.43;6.90;;;;;;;8.82;88.80;91346.78;4999694;28;20104;-87
2021/09/06 04:11:13;;;;;;;14.85;6.90;;;;;;;8.68;88.83;91344.34;4983346;28;20111;-87
2021/09/06 04:13:48;;;;;;;12.48;7.25;;;;;;;8.60;90.01;91352.91;4999931;28;20033;-87
2021/09/06 04:16:26;;;;;;;12.85;7.18;;;;;;;8.55;89.26;91351.22;4996228;28;20117;-88
2021/09/06 04:19:06;;;;;;;10.13;6.50;;;;;;;8.52;89.52;91357.03;4963684;28;20026;-87
2021/09/06 04:21:38;;;;;;;14.65;7.63;;;;;;;8.50;89.20;91351.34;4965378;28;20412;-87
2021/09/06 04:24:17;;;;;;;13.55;7.05;;;;;;;8.55;90.32;91353.81;4948551;28;20038;-87
2021/09/06 04:26:49;;;;;;;14.55;7.45;;;;;;;8.60;91.01;91353.66;4948391;28;20399;-86
2021/09/06 04:29:26;;;;;;;13.10;7.32;;;;;;;8.64;91.11;91347.88;4996390;23;20046;-90
2021/09/06 04:32:01;;;;;;;11.50;6.80;;;;;;;8.88;90.54;91355.97;4970109;28;20030;-91
2021/09/06 04:34:30;;;;;;;12.68;7.40;;;;;;;8.72;90.72;91360.09;4966932;28;20064;-91
2021/09/06 04:37:01;;;;;;;12.75;7.63;;;;;;;8.66;91.59;91358.69;4963263;28;20037;-90
2021/09/06 04:39:38;;;;;;;12.50;7.68;;;;;;;8.73;90.73;91364.22;4964499;28;20037;-90
2021/09/06 04:42:18;;;;;;;14.30;8.10;;;;;;;8.76;89.94;91366.19;4964735;28;20026;-90
2021/09/06 04:44:51;;;;;;;11.63;6.88;;;;;;;8.72;89.08;91370.47;4964801;28;20026;-91
2021/09/06 04:47:26;;;;;;;10.80;6.97;;;;;;;8.57;89.86;91367.25;4964465;28;20026;-90
2021/09/06 04:50:00;;;;;;;14.88;7.22;;;;;;;8.51;89.29;91370.31;4963894;28;20026;-91
2021/09/06 04:52:35;;;;;;;14.90;7.87;;;;;;;8.45;89.17;91377.50;4963843;28;20041;-91
2021/09/06 04:55:12;;;;;;;15.80;7.65;;;;;;;8.40;89.29;91372.41;4964183;28;20303;-91
2021/09/06 04:57:46;;;;;;;14.20;7.07;;;;;;;8.40;89.48;91375.03;4964898;28;20434;-91
2021/09/06 05:00:21;;;;;;;13.85;7.72;;;;;;;8.42;90.01;91372.91;4964368;28;20023;-91
2021/09/06 05:02:59;;;;;;;13.10;7.75;;;;;;;8.40;89.11;91382.06;4964264;28;20065;-90
2021/09/06 05:05:37;;;;;;;15.82;7.60;;;;;;;8.51;90.09;91380.69;4964644;28;20084;-91
2021/09/06 05:08:14;;;;;;;17.98;7.45;;;;;;;8.61;90.56;91381.16;4980012;28;20031;-91
2021/09/06 05:10:51;;;;;;;12.23;7.28;;;;;;;8.61;90.86;91390.78;4963645;28;20022;-90
2021/09/06 05:13:24;;;;;;;14.48;7.53;;;;;;;8.69;90.92;91384.84;4978252;28;20030;-91
2021/09/06 05:16:04;;;;;;;14.32;7.97;;;;;;;8.66;90.60;91390.66;4962799;28;20109;-91
2021/09/06 05:18:37;;;;;;;11.73;7.15;;;;;;;8.73;89.84;91387.63;4981482;28;20041;-91
2021/09/06 05:21:16;;;;;;;12.60;6.85;;;;;;;8.71;89.53;91394.94;4965127;28;20053;-90
2021/09/06 05:23:58;;;;;;;12.60;6.85;;;;;;;8.58;89.46;91394.00;4965623;28;20052;-91
2021/09/06 05:26:33;;;;;;;12.40;7.35;;;;;;;8.66;89.45;91397.66;4966620;28;20033;-91
2021/09/06 05:29:06;;;;;;;13.65;8.05;;;;;;;8.56;89.73;91390.97;4965527;28;20057;-92
2021/09/06 05:31:41;;;;;;;12.15;7.10;;;;;;;8.59;90.05;91393.72;4965299;28;20079;-91
2021/09/06 05:34:14;;;;;;;12.48;7.93;;;;;;;8.60;90.20;91397.84;4981385;28;20175;-92
2021/09/06 05:36:40;;;;;;;12.30;7.30;;;;;;;8.65;90.43;91401.34;4980822;28;20117;-91
2021/09/06 05:39:20;;;;;;;12.45;7.85;;;;;;;8.71;91.44;91406.09;4980780;28;20022;-90
2021/09/06 05:41:50;;;;;;;14.68;8.02;;;;;;;8.77;90.57;91404.13;4980746;28;20397;-91
2021/09/06 05:44:26;;;;;;;16.50;8.30;;;;;;;8.93;90.57;91405.19;4981786;28;20030;-91
2021/09/06 05:47:00;;;;;;;16.80;7.95;;;;;;;8.91;90.36;91399.56;4993287;28;20026;-91
2021/09/06 05:49:36;;;;;;;12.60;7.70;;;;;;;9.06;89.93;91401.69;4993188;28;20026;-92
2021/09/06 05:52:08;;;;;;;12.88;8.10;;;;;;;9.32;89.74;91406.09;4984521;28;20056;-90
2021/09/06 05:54:39;;;;;;;14.68;7.78;;;;;;;9.52;89.23;91410.69;4964851;28;20030;-90
2021/09/06 05:57:12;;;;;;;18.30;8.85;;;;;;;9.51;90.01;91411.75;4965086;28;20421;-91
2021/09/06 05:59:49;;;;;;;17.80;8.45;;;;;;;9.46;90.56;91409.31;4980319;28;20049;-92
2021/09/06 06:02:26;;;;;;;13.40;8.23;;;;;;;9.43;91.20;91412.50;4980265;28;20113;-91
2021/09/06 06:05:02;;;;;;;12.18;8.07;;;;;;;9.50;91.05;91404.25;4980182;28;20025;-91
2021/09/06 06:07:36;;;;;;;14.63;8.07;;;;;;;9.62;90.79;91403.63;4980124;28;20021;-91
2021/09/06 06:10:02;;;;;;;15.20;7.88;;;;;;;9.74;90.79;91403.75;4979666;28;20108;-91
2021/09/06 06:12:39;;;;;;;13.77;8.05;;;;;;;9.78;90.82;91413.22;4980238;28;20038;-91
2021/09/06 06:15:13;;;;;;;16.65;8.63;;;;;;;9.82;90.85;91415.97;4980347;28;20375;-91
2021/09/06 06:17:50;;;;;;;16.95;7.70;;;;;;;9.86;90.78;91410.91;4974671;28;20104;-91
2021/09/06 06:20:24;;;;;;;14.98;8.43;;;;;;;9.96;90.52;91411.31;4945115;28;20033;-91
2021/09/06 06:22:51;;;;;;;14.38;7.47;;;;;;;9.96;90.69;91421.75;4945755;28;20031;-92
2021/09/06 06:25:23;;;;;;;10.80;7.18;;;;;;;10.05;91.00;91414.69;4944400;28;20061;-91
2021/09/06 06:27:50;;;;;;;15.27;7.85;;;;;;;10.14;90.52;91421.69;4946551;28;20531;-91
2021/09/06 06:30:22;;;;;;;12.35;7.40;;;;;;;10.20;90.08;91420.44;4944247;28;20023;-91
2021/09/06 06:32:57;;;;;;;12.05;7.30;;;;;;;10.24;89.93;91416.13;4949209;28;20053;-90
2021/09/06 06:35:34;;;;;;;13.60;8.70;;;;;;;10.33;90.40;91418.75;4949215;28;20030;-91
2021/09/06 06:38:03;;;;;;;15.25;7.82;;;;;;;10.44;90.67;91414.69;4962453;28;20118;-90
2021/09/06 06:40:35;;;;;;;13.05;7.38;;;;;;;10.61;90.11;91413.84;4955813;28;20038;-91
2021/09/06 06:43:09;;;;;;;16.15;8.80;;;;;;;10.73;89.85;91416.53;4964182;28;20030;-91
2021/09/06 06:45:41;;;;;;;14.63;8.80;;;;;;;10.80;90.34;91419.41;4963467;28;20145;-91
2021/09/06 06:48:15;;;;;;;19.63;8.60;;;;;;;10.88;90.23;91421.19;4963564;28;20121;-91
2021/09/06 06:50:43;;;;;;;13.02;8.25;;;;;;;10.97;91.07;91419.28;4963867;28;20473;-91
2021/09/06 06:53:09;;;;;;;14.90;9.02;;;;;;;11.05;91.22;91419.56;4963517;28;20038;-90
2021/09/06 06:55:40;;;;;;;14.45;8.23;;;;;;;11.14;90.16;91410.59;4963229;28;20112;-90
2021/09/06 06:58:15;;;;;;;13.52;8.43;;;;;;;11.28;90.81;91412.94;4960244;28;20494;-91
2021/09/06 07:00:45;;;;;;;12.93;8.70;;;;;;;11.40;91.75;91420.81;4961000;28;20026;-90
2021/09/06 07:03:13;;;;;;;13.98;8.23;;;;;;;11.50;91.13;91422.28;4945522;28;20120;-91
2021/09/06 07:05:44;;;;;;;12.60;8.30;;;;;;;11.61;91.02;91420.78;4944568;28;20034;-91
2021/09/06 07:08:16;;;;;;;16.27;9.10;;;;;;;11.76;91.57;91419.41;4956988;28;20403;-91
2021/09/06 07:10:44;;;;;;;13.77;8.90;;;;;;;11.87;91.89;91422.41;4985184;28;20389;-91
2021/09/06 07:13:11;;;;;;;14.77;9.90;;;;;;;12.00;92.70;91421.34;4982438;28;20489;-91
2021/09/06 07:15:39;;;;;;;14.45;9.57;;;;;;;12.12;92.15;91420.59;4983343;28;20034;-91
2021/09/06 07:18:07;;;;;;;17.63;10.20;;;;;;;12.22;92.10;91422.03;4983049;28;20053;-91
2021/09/06 07:40:44;;;;;;;16.08;10.40;;;;;;;13.76;85.48;91443.00;5025985;28;20107;-89
2021/09/06 07:43:09;;;;;;;17.25;9.55;;;;;;;14.07;80.36;91444.94;4995158;28;20484;-90
2021/09/06 07:45:35;;;;;;;15.65;8.75;;;;;;;14.29;78.25;91441.75;5011912;28;20044;-92
2021/09/06 07:48:01;;;;;;;15.20;8.38;;;;;;;14.43;77.79;91443.19;4979724;28;20477;-91
2021/09/06 07:50:27;;;;;;;16.08;8.82;;;;;;;14.61;77.53;91447.03;4979378;28;20036;-88
2021/09/06 07:52:53;;;;;;;15.23;8.90;;;;;;;14.72;76.38;91448.03;5023955;22;20054;-89
2021/09/06 07:55:18;;;;;;;15.88;8.27;;;;;;;14.89;73.66;91456.66;4998258;28;20389;-90
2021/09/06 07:57:44;;;;;;;16.60;8.45;;;;;;;14.97;74.55;91447.81;4981747;28;20032;-91
2021/09/06 08:00:09;;;;;;;16.58;9.40;;;;;;;15.07;72.66;91463.06;4980841;28;20021;-87
2021/09/06 08:02:41;;;;;;;15.13;8.30;;;;;;;15.15;71.30;91459.47;4980448;28;20024;-87
2021/09/06 08:05:07;;;;;;;13.80;8.13;;;;;;;15.31;70.32;91462.06;4979519;28;20540;-86
2021/09/06 08:07:32;;;;;;;13.48;8.43;;;;;;;15.62;73.69;91461.22;4963162;28;20042;-87
2021/09/06 08:09:58;;;;;;;13.55;7.85;;;;;;;15.65;70.44;91457.88;4978571;28;20030;-86
2021/09/06 08:12:23;;;;;;;14.13;8.07;;;;;;;15.72;70.30;91462.53;4962707;28;20032;-86
2021/09/06 08:14:52;;;;;;;12.32;7.75;;;;;;;15.81;70.38;91464.97;4957587;28;20026;-87
2021/09/06 08:17:17;;;;;;;13.63;7.97;;;;;;;15.89;67.61;91458.75;4972628;28;20018;-87
2021/09/06 08:19:43;;;;;;;11.57;7.60;;;;;;;15.92;67.58;91469.31;4962560;28;20508;-86
2021/09/06 08:22:08;;;;;;;13.13;8.32;;;;;;;16.10;70.61;91468.91;4978674;28;20440;-89
2021/09/06 08:24:33;;;;;;;13.05;7.93;;;;;;;16.21;67.32;91470.59;4962568;28;20026;-86
2021/09/06 08:26:59;;;;;;;12.65;7.82;;;;;;;16.20;66.84;91474.34;4978519;28;20042;-87
2021/09/06 08:29:24;;;;;;;12.70;7.90;;;;;;;16.45;66.11;91474.78;4965841;28;20022;-87
2021/09/06 08:31:50;;;;;;;12.18;6.70;;;;;;;16.45;64.90;91476.66;4982228;28;20026;-87
2021/09/06 08:34:15;;;;;;;15.68;7.65;;;;;;;16.51;66.08;91477.91;4982034;28;20026;-86
2021/09/06 08:36:41;;;;;;;12.35;7.57;;;;;;;16.58;65.19;91480.66;4966210;28;20033;-87
2021/09/06 08:39:06;;;;;;;11.40;7.50;;;;;;;16.71;63.22;91486.47;4964984;28;20034;-87
2021/09/06 08:41:31;;;;;;;11.68;7.55;;;;;;;16.89;64.28;91481.53;4964412;28;20045;-86
2021/09/06 08:43:57;;;;;;;11.57;7.05;;;;;;;16.96;62.58;91474.53;4981292;28;20022;-86
2021/09/06 08:46:23;;;;;;;11.48;6.68;;;;;;;17.03;63.59;91481.78;4965313;28;20034;-87
2021/09/06 08:49:03;;;;;;;11.13;7.32;;;;;;;17.08;62.98;91484.09;4965133;28;20033;-87
2021/09/06 08:51:28;;;;;;;11.25;7.07;;;;;;;16.94;60.70;91483.88;4965349;28;20473;-86
2021/09/06 08:53:53;;;;;;;11.68;6.40;;;;;;;17.19;60.80;91485.00;4965567;28;20034;-87
2021/09/06 08:56:21;;;;;;;13.07;7.22;;;;;;;17.28;61.25;91478.72;4981472;28;20397;-88
2021/09/06 08:58:46;;;;;;;13.07;6.93;;;;;;;17.33;59.00;91487.09;4981996;28;20026;-86
2021/09/06 09:01:12;;;;;;;12.27;6.80;;;;;;;17.22;60.21;91493.31;4982099;28;20034;-88
2021/09/06 09:03:37;;;;;;;13.77;6.93;;;;;;;17.21;59.27;91495.19;4965072;28;20029;-88
2021/09/06 09:06:04;;;;;;;11.13;7.00;;;;;;;17.34;59.76;91495.75;4977587;28;20015;-89
2021/09/06 09:08:31;;;;;;;10.98;6.65;;;;;;;17.55;60.59;91496.03;4980795;28;20030;-87
2021/09/06 09:11:00;;;;;;;10.45;6.97;;;;;;;17.59;59.08;91496.84;4962142;28;20030;-88
2021/09/06 09:13:27;;;;;;;10.80;6.82;;;;;;;17.79;58.03;91496.75;4962219;28;20063;-88
2021/09/06 09:15:56;;;;;;;13.73;6.95;;;;;;;17.84;57.96;91496.44;4978103;28;20493;-87
2021/09/06 09:18:31;;;;;;;12.25;6.65;;;;;;;18.02;57.03;91496.63;4978431;28;20026;-87
2021/09/06 09:21:04;;;;;;;10.65;6.47;;;;;;;18.00;55.41;91498.88;4961519;28;20019;-86
2021/09/06 09:23:44;;;;;;;12.23;6.25;;;;;;;18.10;56.23;91496.38;4961818;28;20045;-88
2021/09/06 09:26:09;;;;;;;11.20;6.15;;;;;;;18.15;54.87;91493.41;4961447;28;20466;-86
2021/09/06 09:28:42;;;;;;;12.00;6.20;;;;;;;18.36;58.32;91494.75;4961769;28;20026;-89
2021/09/06 09:31:09;;;;;;;10.98;6.28;;;;;;;18.41;56.25;91491.81;4978264;28;20030;-88
2021/09/06 09:33:42;;;;;;;10.13;5.95;;;;;;;18.57;56.07;91494.97;4961513;28;20022;-86
2021/09/06 09:36:07;;;;;;;9.05;6.32;;;;;;;18.69;55.16;91493.94;4961763;28;20022;-88
2021/09/06 09:38:37;;;;;;;10.27;5.93;;;;;;;18.69;54.26;91496.56;4993317;28;20069;-86
2021/09/06 09:41:12;;;;;;;13.48;6.20;;;;;;;18.73;53.09;91494.00;4977524;28;20109;-88
2021/09/06 09:43:37;;;;;;;10.50;6.38;;;;;;;18.86;56.92;91492.63;4960700;28;20037;-87
2021/09/06 09:46:03;;;;;;;11.52;6.13;;;;;;;18.96;56.56;91493.81;4960635;28;20027;-88
2021/09/06 09:48:28;;;;;;;11.88;6.55;;;;;;;19.17;57.62;91485.31;4961462;28;20022;-87
2021/09/06 09:50:54;;;;;;;12.15;6.63;;;;;;;19.29;55.65;91485.78;4960527;28;20030;-88
2021/09/06 09:53:20;;;;;;;12.38;5.68;;;;;;;19.31;56.52;91488.06;4960737;28;20034;-87
2021/09/06 09:55:45;;;;;;;11.02;6.00;;;;;;;19.22;52.30;91484.97;4977320;28;20033;-89
2021/09/06 09:58:11;;;;;;;8.75;5.38;;;;;;;19.30;52.61;91491.81;4977659;28;20034;-87
2021/09/06 10:00:37;;;;;;;8.50;5.43;;;;;;;19.25;52.82;91484.22;4986397;28;20022;-88
2021/09/06 10:03:03;;;;;;;9.73;6.07;;;;;;;19.19;51.04;91485.72;4960946;28;20034;-89
2021/09/06 10:05:30;;;;;;;8.70;5.25;;;;;;;19.22;51.80;91480.47;4960610;28;20434;-85
2021/09/06 10:07:56;;;;;;;10.68;5.13;;;;;;;19.29;48.97;91487.66;4960578;28;20046;-88
2021/09/06 10:10:22;;;;;;;9.27;5.07;;;;;;;19.47;52.03;91480.63;4973840;28;20112;-88
2021/09/06 10:13:07;;;;;;;8.88;4.82;;;;;;;19.58;52.87;91481.44;4979761;28;20132;-88
2021/09/06 10:15:33;;;;;;;11.02;5.18;;;;;;;19.56;51.53;91478.38;4995370;28;20120;-87
2021/09/06 10:18:00;;;;;;;10.48;5.65;;;;;;;19.47;52.05;91477.19;4954701;28;20132;-88
2021/09/06 10:20:26;;;;;;;7.38;5.05;;;;;;;19.66;51.89;91476.22;4944791;28;20077;-88
2021/09/06 10:23:03;;;;;;;13.00;5.68;;;;;;;19.65;50.47;91483.38;4945668;28;20018;-88
2021/09/06 10:25:31;;;;;;;8.02;5.18;;;;;;;19.74;52.22;91469.81;4976808;28;20078;-88
2021/09/06 10:28:02;;;;;;;8.73;5.63;;;;;;;19.82;54.38;91468.72;4976101;28;20061;-89
2021/09/06 10:30:42;;;;;;;8.60;5.75;;;;;;;20.04;54.79;91466.94;4976700;28;20022;-87
2021/09/06 10:33:24;;;;;;;9.55;5.82;;;;;;;19.88;53.76;91472.53;4995666;28;20026;-87
2021/09/06 10:36:00;;;;;;;8.15;5.55;;;;;;;20.01;52.76;91459.75;4979739;28;20037;-87
2021/09/06 10:38:44;;;;;;;9.43;6.05;;;;;;;19.98;50.95;91463.88;4965523;28;20089;-87
2021/09/06 10:41:13;;;;;;;8.53;6.00;;;;;;;20.07;51.79;91468.84;4981266;28;20045;-88
2021/09/06 10:43:50;;;;;;;9.68;5.15;;;;;;;19.99;51.42;91468.03;4979681;28;20108;-88
2021/09/06 10:46:15;;;;;;;9.43;5.22;;;;;;;20.06;52.19;91462.03;4963611;28;20030;-87
2021/09/06 10:48:41;;;;;;;7.43;5.45;;;;;;;20.31;52.69;91467.38;4963162;28;20119;-86
2021/09/06 10:51:06;;;;;;;8.35;6.00;;;;;;;20.34;52.13;91461.34;4978926;28;20025;-87
2021/09/06 10:53:32;;;;;;;9.48;6.18;;;;;;;20.38;54.27;91456.81;4979313;28;20492;-86
2021/09/06 10:55:58;;;;;;;11.35;6.30;;;;;;;20.58;53.06;91464.47;4979553;28;20028;-88
2021/09/06 10:58:25;;;;;;;10.30;6.25;;;;;;;20.51;50.78;91463.31;4962798;28;20029;-90
2021/09/06 11:00:55;;;;;;;9.05;5.55;;;;;;;20.49;51.57;91454.19;4963303;28;20091;-87
2021/09/06 11:03:21;;;;;;;9.02;5.80;;;;;;;20.87;53.09;91460.69;4962946;28;20025;-87
2021/09/06 11:05:54;;;;;;;9.82;6.05;;;;;;;20.82;50.69;91458.44;4979577;28;20032;-88
2021/09/06 11:08:27;;;;;;;8.23;5.35;;;;;;;20.98;50.75;91455.41;4978626;28;20447;-87
2021/09/06 11:10:53;;;;;;;10.10;5.53;;;;;;;20.86;50.69;91461.84;4963382;28;20385;-87
2021/09/06 11:13:19;;;;;;;12.82;5.45;;;;;;;20.76;49.90;91459.94;4979656;28;20108;-87
2021/09/06 11:15:44;;;;;;;8.35;5.45;;;;;;;20.67;51.82;91462.19;4995579;28;20374;-86
2021/09/06 11:18:10;;;;;;;8.95;5.55;;;;;;;20.32;50.67;91463.63;4978820;28;20029;-88
2021/09/06 11:20:36;;;;;;;12.90;5.72;;;;;;;20.53;50.05;91466.34;4979347;28;20018;-87
2021/09/06 11:23:03;;;;;;;9.07;5.40;;;;;;;20.56;49.38;91467.47;4979122;28;20022;-88
2021/09/06 11:25:30;;;;;;;10.23;5.90;;;;;;;20.57;52.08;91468.25;4995357;28;20022;-86
2021/09/06 11:28:05;;;;;;;9.60;5.80;;;;;;;20.96;52.34;91455.78;4994674;28;20444;-88
2021/09/06 11:30:31;;;;;;;10.43;5.63;;;;;;;21.11;52.50;91459.19;4991722;28;20041;-88
2021/09/06 11:32:57;;;;;;;7.25;5.07;;;;;;;21.34;50.11;91458.78;4975353;28;20440;-87
2021/09/06 11:35:22;;;;;;;12.82;5.78;;;;;;;21.45;50.06;91464.09;4975483;28;20038;-87
2021/09/06 11:37:49;;;;;;;8.40;5.90;;;;;;;21.22;48.73;91459.94;4958674;28;20033;-87
2021/09/06 11:40:14;;;;;;;8.98;5.10;;;;;;;21.23;50.84;91460.69;4975545;28;20019;-88
2021/09/06 11:42:40;;;;;;;9.15;5.43;;;;;;;21.11;48.76;91459.19;4959208;28;20029;-88
2021/09/06 11:45:06;;;;;;;9.80;5.57;;;;;;;21.12;49.73;91459.94;4975854;28;20030;-88
2021/09/06 11:47:31;;;;;;;8.45;5.47;;;;;;;21.28;48.40;91457.66;4958924;28;20566;-87
2021/09/06 11:49:58;;;;;;;8.90;5.55;;;;;;;21.38;47.88;91456.16;4975420;28;20466;-88
2021/09/06 11:52:43;;;;;;;8.95;5.55;;;;;;;21.37;48.23;91455.38;4974996;28;20026;-88
2021/09/06 11:55:12;;;;;;;11.60;5.20;;;;;;;21.51;48.48;91459.91;4994265;28;20026;-87
2021/09/06 11:57:38;;;;;;;9.38;5.40;;;;;;;21.16;48.33;91466.75;4978520;28;20029;-88
2021/09/06 12:00:04;;;;;;;9.18;5.60;;;;;;;21.12;46.84;91465.22;4962640;28;20047;-86
2021/09/06 12:02:29;;;;;;;8.23;5.15;;;;;;;21.09;45.99;91460.69;4979457;28;20117;-87
2021/09/06 12:05:03;;;;;;;6.57;4.80;;;;;;;21.48;49.10;91463.31;4966252;28;20030;-88
2021/09/06 12:07:29;;;;;;;;;;;;;;;21.77;49.83;91460.59;4998903;28;20025;-87
2021/09/06 12:09:54;;;;;;;10.00;5.28;;;;;;;21.92;48.94;91460.19;4982098;28;19971;-88
2021/09/06 12:12:24;;;;;;;8.23;5.28;;;;;;;21.97;45.38;91464.31;4981892;28;20040;-88
2021/09/06 12:14:50;;;;;;;7.95;5.18;;;;;;;22.02;48.20;91461.28;4981758;28;20029;-86